sensor_id;sensor_type;location;lat;lon;timestamp;temperature;humidity
37782;DHT22;23621;50.878;4.584;2024-03-02T00:01:05;14.90;69.40
37782;DHT22;23621;50.878;4.584;2024-03-02T00:03:06;14.90;69.40
37782;DHT22;23621;50.878;4.584;2024-03-02T00:05:08;14.90;69.30
37782;DHT22;23621;50.878;4.584;2024-03-02T00:07:14;14.90;69.30
37782;DHT22;23621;50.878;4.584;2024-03-02T00:09:15;14.90;69.00
37782;DHT22;23621;50.878;4.584;2024-03-02T00:11:15;14.90;69.10
37782;DHT22;23621;50.878;4.584;2024-03-02T00:13:20;14.90;69.10
37782;DHT22;23621;50.878;4.584;2024-03-02T00:15:40;14.80;69.00
37782;DHT22;23621;50.878;4.584;2024-03-02T00:17:52;14.80;69.00
37782;DHT22;23621;50.878;4.584;2024-03-02T00:19:53;14.60;68.90
37782;DHT22;23621;50.878;4.584;2024-03-02T00:21:54;14.60;68.90
37782;DHT22;23621;50.878;4.584;2024-03-02T00:23:54;14.50;69.80
37782;DHT22;23621;50.878;4.584;2024-03-02T00:25:55;14.60;69.20
37782;DHT22;23621;50.878;4.584;2024-03-02T00:27:56;14.60;69.10
37782;DHT22;23621;50.878;4.584;2024-03-02T00:29:57;14.50;68.80
37782;DHT22;23621;50.878;4.584;2024-03-02T00:31:58;14.50;69.00
37782;DHT22;23621;50.878;4.584;2024-03-02T00:34:00;14.60;69.10
37782;DHT22;23621;50.878;4.584;2024-03-02T00:36:05;14.60;69.20
37782;DHT22;23621;50.878;4.584;2024-03-02T00:38:06;14.70;69.30
37782;DHT22;23621;50.878;4.584;2024-03-02T00:40:07;14.70;69.10
37782;DHT22;23621;50.878;4.584;2024-03-02T00:42:09;14.70;68.80
37782;DHT22;23621;50.878;4.584;2024-03-02T00:44:13;14.80;69.00
37782;DHT22;23621;50.878;4.584;2024-03-02T00:46:18;14.80;69.20
37782;DHT22;23621;50.878;4.584;2024-03-02T00:48:19;14.80;69.10
37782;DHT22;23621;50.878;4.584;2024-03-02T00:50:19;14.70;68.80
37782;DHT22;23621;50.878;4.584;2024-03-02T00:52:20;14.80;68.80
37782;DHT22;23621;50.878;4.584;2024-03-02T00:54:22;14.80;68.70
37782;DHT22;23621;50.878;4.584;2024-03-02T00:56:25;14.90;68.80
37782;DHT22;23621;50.878;4.584;2024-03-02T00:58:25;14.90;68.60
37782;DHT22;23621;50.878;4.584;2024-03-02T01:00:26;15.00;68.60
37782;DHT22;23621;50.878;4.584;2024-03-02T01:02:28;14.90;68.40
37782;DHT22;23621;50.878;4.584;2024-03-02T01:04:29;14.90;68.40
37782;DHT22;23621;50.878;4.584;2024-03-02T01:06:30;15.00;68.50
37782;DHT22;23621;50.878;4.584;2024-03-02T01:08:31;14.90;68.40
37782;DHT22;23621;50.878;4.584;2024-03-02T01:10:31;15.00;68.50
37782;DHT22;23621;50.878;4.584;2024-03-02T01:12:32;15.00;68.60
37782;DHT22;23621;50.878;4.584;2024-03-02T01:14:33;15.00;68.50
37782;DHT22;23621;50.878;4.584;2024-03-02T01:16:34;15.00;68.50
37782;DHT22;23621;50.878;4.584;2024-03-02T01:18:34;15.00;68.50
37782;DHT22;23621;50.878;4.584;2024-03-02T01:20:35;15.00;68.50
37782;DHT22;23621;50.878;4.584;2024-03-02T01:22:36;15.00;68.50
37782;DHT22;23621;50.878;4.584;2024-03-02T01:24:37;15.00;68.50
37782;DHT22;23621;50.878;4.584;2024-03-02T01:26:38;14.90;68.30
37782;DHT22;23621;50.878;4.584;2024-03-02T01:28:39;15.00;68.40
37782;DHT22;23621;50.878;4.584;2024-03-02T01:30:40;14.90;68.20
37782;DHT22;23621;50.878;4.584;2024-03-02T01:32:41;15.00;68.30
37782;DHT22;23621;50.878;4.584;2024-03-02T01:34:42;15.00;68.40
37782;DHT22;23621;50.878;4.584;2024-03-02T01:36:42;15.00;68.20
37782;DHT22;23621;50.878;4.584;2024-03-02T01:38:43;15.00;68.40
37782;DHT22;23621;50.878;4.584;2024-03-02T01:40:44;14.90;68.10
37782;DHT22;23621;50.878;4.584;2024-03-02T01:42:47;14.90;68.10
37782;DHT22;23621;50.878;4.584;2024-03-02T01:44:48;14.90;68.00
37782;DHT22;23621;50.878;4.584;2024-03-02T01:46:49;14.90;68.70
37782;DHT22;23621;50.878;4.584;2024-03-02T01:48:49;14.80;67.90
37782;DHT22;23621;50.878;4.584;2024-03-02T01:50:50;14.80;67.80
37782;DHT22;23621;50.878;4.584;2024-03-02T01:52:51;14.80;67.80
37782;DHT22;23621;50.878;4.584;2024-03-02T01:54:52;14.70;67.60
37782;DHT22;23621;50.878;4.584;2024-03-02T01:56:52;14.70;67.60
37782;DHT22;23621;50.878;4.584;2024-03-02T01:58:53;14.70;67.60
37782;DHT22;23621;50.878;4.584;2024-03-02T02:00:54;14.70;67.60
37782;DHT22;23621;50.878;4.584;2024-03-02T02:02:54;14.70;67.50
37782;DHT22;23621;50.878;4.584;2024-03-02T02:04:55;14.70;67.40
37782;DHT22;23621;50.878;4.584;2024-03-02T02:06:56;14.70;67.30
37782;DHT22;23621;50.878;4.584;2024-03-02T02:08:56;14.70;67.50
37782;DHT22;23621;50.878;4.584;2024-03-02T02:10:57;14.70;67.50
37782;DHT22;23621;50.878;4.584;2024-03-02T02:12:58;14.70;67.50
37782;DHT22;23621;50.878;4.584;2024-03-02T02:14:59;14.60;67.00
37782;DHT22;23621;50.878;4.584;2024-03-02T02:17:00;14.60;67.30
37782;DHT22;23621;50.878;4.584;2024-03-02T02:19:00;14.60;67.30
37782;DHT22;23621;50.878;4.584;2024-03-02T02:21:01;14.70;67.30
37782;DHT22;23621;50.878;4.584;2024-03-02T02:23:05;14.70;67.40
37782;DHT22;23621;50.878;4.584;2024-03-02T02:25:08;14.80;67.40
37782;DHT22;23621;50.878;4.584;2024-03-02T02:27:09;14.80;67.30
37782;DHT22;23621;50.878;4.584;2024-03-02T02:29:15;14.80;67.30
37782;DHT22;23621;50.878;4.584;2024-03-02T02:31:16;14.80;67.10
37782;DHT22;23621;50.878;4.584;2024-03-02T02:33:17;14.80;67.10
37782;DHT22;23621;50.878;4.584;2024-03-02T02:35:17;14.80;67.20
37782;DHT22;23621;50.878;4.584;2024-03-02T02:37:18;14.80;67.20
37782;DHT22;23621;50.878;4.584;2024-03-02T02:39:21;14.80;67.00
37782;DHT22;23621;50.878;4.584;2024-03-02T02:41:22;14.80;66.90
37782;DHT22;23621;50.878;4.584;2024-03-02T02:43:23;14.80;66.80
37782;DHT22;23621;50.878;4.584;2024-03-02T02:45:24;14.80;66.80
37782;DHT22;23621;50.878;4.584;2024-03-02T02:47:26;14.80;66.70
37782;DHT22;23621;50.878;4.584;2024-03-02T02:49:26;14.80;66.60
37782;DHT22;23621;50.878;4.584;2024-03-02T02:51:27;14.80;66.40
37782;DHT22;23621;50.878;4.584;2024-03-02T02:53:28;14.70;66.40
37782;DHT22;23621;50.878;4.584;2024-03-02T02:55:28;14.80;66.50
37782;DHT22;23621;50.878;4.584;2024-03-02T02:57:29;14.80;66.50
37782;DHT22;23621;50.878;4.584;2024-03-02T02:59:31;14.80;66.60
37782;DHT22;23621;50.878;4.584;2024-03-02T03:01:32;14.80;66.50
37782;DHT22;23621;50.878;4.584;2024-03-02T03:03:33;14.80;66.40
37782;DHT22;23621;50.878;4.584;2024-03-02T03:05:34;14.70;66.10
37782;DHT22;23621;50.878;4.584;2024-03-02T03:07:34;14.70;66.10
37782;DHT22;23621;50.878;4.584;2024-03-02T03:09:37;14.70;66.00
37782;DHT22;23621;50.878;4.584;2024-03-02T03:11:39;14.70;66.00
37782;DHT22;23621;50.878;4.584;2024-03-02T03:13:39;14.70;66.10
37782;DHT22;23621;50.878;4.584;2024-03-02T03:15:40;14.70;66.00
37782;DHT22;23621;50.878;4.584;2024-03-02T03:17:41;14.60;65.80
37782;DHT22;23621;50.878;4.584;2024-03-02T03:19:41;14.60;65.80
37782;DHT22;23621;50.878;4.584;2024-03-02T03:21:43;14.50;65.70
37782;DHT22;23621;50.878;4.584;2024-03-02T03:23:44;14.50;65.70
37782;DHT22;23621;50.878;4.584;2024-03-02T03:25:45;14.50;65.70
37782;DHT22;23621;50.878;4.584;2024-03-02T03:27:46;14.40;65.70
37782;DHT22;23621;50.878;4.584;2024-03-02T03:29:47;14.30;65.70
37782;DHT22;23621;50.878;4.584;2024-03-02T03:31:48;14.30;65.70
37782;DHT22;23621;50.878;4.584;2024-03-02T03:33:48;14.30;65.70
37782;DHT22;23621;50.878;4.584;2024-03-02T03:35:49;14.30;65.80
37782;DHT22;23621;50.878;4.584;2024-03-02T03:37:50;14.30;65.80
37782;DHT22;23621;50.878;4.584;2024-03-02T03:39:50;14.30;65.80
37782;DHT22;23621;50.878;4.584;2024-03-02T03:41:51;14.30;65.90
37782;DHT22;23621;50.878;4.584;2024-03-02T03:43:51;14.30;65.90
37782;DHT22;23621;50.878;4.584;2024-03-02T03:45:52;14.20;65.60
37782;DHT22;23621;50.878;4.584;2024-03-02T03:47:53;14.20;65.60
37782;DHT22;23621;50.878;4.584;2024-03-02T03:49:55;14.20;65.60
37782;DHT22;23621;50.878;4.584;2024-03-02T03:51:59;14.20;65.70
37782;DHT22;23621;50.878;4.584;2024-03-02T03:53:59;14.20;65.70
37782;DHT22;23621;50.878;4.584;2024-03-02T03:56:00;14.20;65.70
37782;DHT22;23621;50.878;4.584;2024-03-02T03:58:01;14.20;65.80
37782;DHT22;23621;50.878;4.584;2024-03-02T04:00:02;14.20;65.90
37782;DHT22;23621;50.878;4.584;2024-03-02T04:02:03;14.20;65.90
37782;DHT22;23621;50.878;4.584;2024-03-02T04:04:04;14.20;65.90
37782;DHT22;23621;50.878;4.584;2024-03-02T04:06:05;14.20;65.80
37782;DHT22;23621;50.878;4.584;2024-03-02T04:08:06;14.20;65.80
37782;DHT22;23621;50.878;4.584;2024-03-02T04:10:08;14.20;65.80
37782;DHT22;23621;50.878;4.584;2024-03-02T04:12:09;14.10;65.70
37782;DHT22;23621;50.878;4.584;2024-03-02T04:14:09;14.10;65.80
37782;DHT22;23621;50.878;4.584;2024-03-02T04:16:10;14.10;65.70
37782;DHT22;23621;50.878;4.584;2024-03-02T04:18:11;14.00;65.70
37782;DHT22;23621;50.878;4.584;2024-03-02T04:20:12;13.90;65.70
37782;DHT22;23621;50.878;4.584;2024-03-02T04:22:12;13.90;65.90
37782;DHT22;23621;50.878;4.584;2024-03-02T04:24:13;13.80;65.90
37782;DHT22;23621;50.878;4.584;2024-03-02T04:26:14;13.80;66.00
37782;DHT22;23621;50.878;4.584;2024-03-02T04:28:15;13.80;66.00
37782;DHT22;23621;50.878;4.584;2024-03-02T04:30:16;13.80;66.00
37782;DHT22;23621;50.878;4.584;2024-03-02T04:32:16;13.80;66.00
37782;DHT22;23621;50.878;4.584;2024-03-02T04:34:17;13.80;66.00
37782;DHT22;23621;50.878;4.584;2024-03-02T04:36:18;13.80;65.90
37782;DHT22;23621;50.878;4.584;2024-03-02T04:38:19;13.70;65.70
37782;DHT22;23621;50.878;4.584;2024-03-02T04:40:19;13.70;65.70
37782;DHT22;23621;50.878;4.584;2024-03-02T04:42:20;13.70;65.80
37782;DHT22;23621;50.878;4.584;2024-03-02T04:44:21;13.70;65.80
37782;DHT22;23621;50.878;4.584;2024-03-02T04:46:21;13.60;65.70
37782;DHT22;23621;50.878;4.584;2024-03-02T04:48:22;13.60;65.70
37782;DHT22;23621;50.878;4.584;2024-03-02T04:50:23;13.60;65.70
37782;DHT22;23621;50.878;4.584;2024-03-02T04:52:23;13.60;65.70
37782;DHT22;23621;50.878;4.584;2024-03-02T04:54:24;13.50;65.70
37782;DHT22;23621;50.878;4.584;2024-03-02T04:56:25;13.50;65.80
37782;DHT22;23621;50.878;4.584;2024-03-02T04:58:31;13.50;65.90
37782;DHT22;23621;50.878;4.584;2024-03-02T05:00:33;13.40;65.90
37782;DHT22;23621;50.878;4.584;2024-03-02T05:02:34;13.40;66.00
37782;DHT22;23621;50.878;4.584;2024-03-02T05:04:34;13.40;66.10
37782;DHT22;23621;50.878;4.584;2024-03-02T05:06:35;13.40;66.20
37782;DHT22;23621;50.878;4.584;2024-03-02T05:08:36;13.40;66.30
37782;DHT22;23621;50.878;4.584;2024-03-02T05:10:36;13.40;66.30
37782;DHT22;23621;50.878;4.584;2024-03-02T05:12:37;13.40;66.30
37782;DHT22;23621;50.878;4.584;2024-03-02T05:14:44;13.40;66.30
37782;DHT22;23621;50.878;4.584;2024-03-02T05:16:45;13.40;66.30
37782;DHT22;23621;50.878;4.584;2024-03-02T05:18:46;13.40;66.20
37782;DHT22;23621;50.878;4.584;2024-03-02T05:20:47;13.40;66.20
37782;DHT22;23621;50.878;4.584;2024-03-02T05:22:48;13.40;66.30
37782;DHT22;23621;50.878;4.584;2024-03-02T05:24:50;13.40;66.30
37782;DHT22;23621;50.878;4.584;2024-03-02T05:26:50;13.30;66.20
37782;DHT22;23621;50.878;4.584;2024-03-02T05:28:51;13.30;66.40
37782;DHT22;23621;50.878;4.584;2024-03-02T05:30:51;13.30;66.40
37782;DHT22;23621;50.878;4.584;2024-03-02T05:32:52;13.30;66.40
37782;DHT22;23621;50.878;4.584;2024-03-02T05:34:53;13.20;66.30
37782;DHT22;23621;50.878;4.584;2024-03-02T05:36:53;13.20;66.40
37782;DHT22;23621;50.878;4.584;2024-03-02T05:38:54;13.20;66.50
37782;DHT22;23621;50.878;4.584;2024-03-02T05:40:55;13.20;66.60
37782;DHT22;23621;50.878;4.584;2024-03-02T05:42:55;13.10;66.60
37782;DHT22;23621;50.878;4.584;2024-03-02T05:44:56;13.10;66.60
37782;DHT22;23621;50.878;4.584;2024-03-02T05:46:57;13.10;66.70
37782;DHT22;23621;50.878;4.584;2024-03-02T05:48:59;13.00;66.60
37782;DHT22;23621;50.878;4.584;2024-03-02T05:51:00;13.00;66.70
37782;DHT22;23621;50.878;4.584;2024-03-02T05:53:00;13.00;66.70
37782;DHT22;23621;50.878;4.584;2024-03-02T05:55:01;13.00;66.70
37782;DHT22;23621;50.878;4.584;2024-03-02T05:57:02;13.00;66.70
37782;DHT22;23621;50.878;4.584;2024-03-02T05:59:17;12.90;66.60
37782;DHT22;23621;50.878;4.584;2024-03-02T06:01:18;12.90;66.70
37782;DHT22;23621;50.878;4.584;2024-03-02T06:03:18;12.90;66.80
37782;DHT22;23621;50.878;4.584;2024-03-02T06:05:19;12.90;66.80
37782;DHT22;23621;50.878;4.584;2024-03-02T06:07:19;12.90;66.80
37782;DHT22;23621;50.878;4.584;2024-03-02T06:09:20;12.90;67.60
37782;DHT22;23621;50.878;4.584;2024-03-02T06:11:21;12.90;66.90
37782;DHT22;23621;50.878;4.584;2024-03-02T06:13:21;12.90;66.90
37782;DHT22;23621;50.878;4.584;2024-03-02T06:15:22;12.90;66.80
37782;DHT22;23621;50.878;4.584;2024-03-02T06:17:23;13.00;67.60
37782;DHT22;23621;50.878;4.584;2024-03-02T06:19:23;13.00;66.80
37782;DHT22;23621;50.878;4.584;2024-03-02T06:21:24;13.00;66.70
37782;DHT22;23621;50.878;4.584;2024-03-02T06:23:25;13.00;66.70
37782;DHT22;23621;50.878;4.584;2024-03-02T06:25:26;13.00;67.40
37782;DHT22;23621;50.878;4.584;2024-03-02T06:27:26;13.00;66.50
37782;DHT22;23621;50.878;4.584;2024-03-02T06:29:27;13.10;66.50
37782;DHT22;23621;50.878;4.584;2024-03-02T06:31:28;13.10;66.50
37782;DHT22;23621;50.878;4.584;2024-03-02T06:33:28;13.10;66.40
37782;DHT22;23621;50.878;4.584;2024-03-02T06:35:29;13.10;66.40
37782;DHT22;23621;50.878;4.584;2024-03-02T06:37:30;13.10;66.20
37782;DHT22;23621;50.878;4.584;2024-03-02T06:39:30;13.10;66.10
37782;DHT22;23621;50.878;4.584;2024-03-02T06:41:34;13.10;66.10
37782;DHT22;23621;50.878;4.584;2024-03-02T06:43:35;13.10;66.00
37782;DHT22;23621;50.878;4.584;2024-03-02T06:45:35;13.10;65.90
37782;DHT22;23621;50.878;4.584;2024-03-02T06:47:36;13.10;65.80
37782;DHT22;23621;50.878;4.584;2024-03-02T06:49:37;13.10;65.70
37782;DHT22;23621;50.878;4.584;2024-03-02T06:51:37;13.10;65.70
37782;DHT22;23621;50.878;4.584;2024-03-02T06:53:38;13.10;65.80
37782;DHT22;23621;50.878;4.584;2024-03-02T06:55:38;13.00;65.80
37782;DHT22;23621;50.878;4.584;2024-03-02T06:57:39;13.00;65.80
37782;DHT22;23621;50.878;4.584;2024-03-02T06:59:40;13.00;65.90
37782;DHT22;23621;50.878;4.584;2024-03-02T07:01:40;13.00;66.00
37782;DHT22;23621;50.878;4.584;2024-03-02T07:03:42;12.90;66.00
37782;DHT22;23621;50.878;4.584;2024-03-02T07:05:43;12.90;66.00
37782;DHT22;23621;50.878;4.584;2024-03-02T07:07:44;12.90;66.00
37782;DHT22;23621;50.878;4.584;2024-03-02T07:09:44;13.00;66.20
37782;DHT22;23621;50.878;4.584;2024-03-02T07:11:45;12.90;66.10
37782;DHT22;23621;50.878;4.584;2024-03-02T07:13:45;12.90;66.00
37782;DHT22;23621;50.878;4.584;2024-03-02T07:15:46;12.90;66.10
37782;DHT22;23621;50.878;4.584;2024-03-02T07:17:52;12.90;66.20
37782;DHT22;23621;50.878;4.584;2024-03-02T07:19:53;12.90;66.30
37782;DHT22;23621;50.878;4.584;2024-03-02T07:21:54;12.90;66.40
37782;DHT22;23621;50.878;4.584;2024-03-02T07:23:54;12.90;66.50
37782;DHT22;23621;50.878;4.584;2024-03-02T07:25:56;13.00;66.70
37782;DHT22;23621;50.878;4.584;2024-03-02T07:27:57;13.00;66.70
37782;DHT22;23621;50.878;4.584;2024-03-02T07:29:57;13.00;66.70
37782;DHT22;23621;50.878;4.584;2024-03-02T07:31:58;13.00;66.70
37782;DHT22;23621;50.878;4.584;2024-03-02T07:33:59;13.10;66.70
37782;DHT22;23621;50.878;4.584;2024-03-02T07:36:01;13.10;66.70
37782;DHT22;23621;50.878;4.584;2024-03-02T07:38:02;13.10;66.70
37782;DHT22;23621;50.878;4.584;2024-03-02T07:40:03;13.10;66.80
37782;DHT22;23621;50.878;4.584;2024-03-02T07:42:04;13.10;66.80
37782;DHT22;23621;50.878;4.584;2024-03-02T07:44:05;13.20;67.00
37782;DHT22;23621;50.878;4.584;2024-03-02T07:46:06;13.20;67.00
37782;DHT22;23621;50.878;4.584;2024-03-02T07:48:07;13.20;67.00
37782;DHT22;23621;50.878;4.584;2024-03-02T07:50:08;13.30;67.00
37782;DHT22;23621;50.878;4.584;2024-03-02T07:52:09;13.30;67.10
37782;DHT22;23621;50.878;4.584;2024-03-02T07:54:10;13.30;67.00
37782;DHT22;23621;50.878;4.584;2024-03-02T07:56:11;13.30;67.10
37782;DHT22;23621;50.878;4.584;2024-03-02T07:58:12;13.40;67.10
37782;DHT22;23621;50.878;4.584;2024-03-02T08:00:13;13.30;67.10
37782;DHT22;23621;50.878;4.584;2024-03-02T08:02:15;13.40;67.30
37782;DHT22;23621;50.878;4.584;2024-03-02T08:04:15;13.40;67.30
37782;DHT22;23621;50.878;4.584;2024-03-02T08:06:17;13.40;67.50
37782;DHT22;23621;50.878;4.584;2024-03-02T08:08:18;13.40;67.50
37782;DHT22;23621;50.878;4.584;2024-03-02T08:10:19;13.40;67.60
37782;DHT22;23621;50.878;4.584;2024-03-02T08:12:20;13.40;67.60
37782;DHT22;23621;50.878;4.584;2024-03-02T08:14:22;13.40;67.60
37782;DHT22;23621;50.878;4.584;2024-03-02T08:16:23;13.40;67.60
37782;DHT22;23621;50.878;4.584;2024-03-02T08:18:24;13.40;67.80
37782;DHT22;23621;50.878;4.584;2024-03-02T08:20:25;13.50;68.00
37782;DHT22;23621;50.878;4.584;2024-03-02T08:22:25;13.50;68.00
37782;DHT22;23621;50.878;4.584;2024-03-02T08:24:26;13.50;68.10
37782;DHT22;23621;50.878;4.584;2024-03-02T08:26:27;13.40;68.00
37782;DHT22;23621;50.878;4.584;2024-03-02T08:28:30;13.50;68.10
37782;DHT22;23621;50.878;4.584;2024-03-02T08:30:30;13.50;68.00
37782;DHT22;23621;50.878;4.584;2024-03-02T08:32:31;13.50;68.80
37782;DHT22;23621;50.878;4.584;2024-03-02T08:34:31;13.50;68.10
37782;DHT22;23621;50.878;4.584;2024-03-02T08:36:32;13.50;68.10
37782;DHT22;23621;50.878;4.584;2024-03-02T08:38:33;13.60;68.30
37782;DHT22;23621;50.878;4.584;2024-03-02T08:40:34;13.60;68.10
37782;DHT22;23621;50.878;4.584;2024-03-02T08:42:34;13.60;68.10
37782;DHT22;23621;50.878;4.584;2024-03-02T08:44:35;13.60;68.20
37782;DHT22;23621;50.878;4.584;2024-03-02T08:46:36;13.60;68.10
37782;DHT22;23621;50.878;4.584;2024-03-02T08:48:37;13.60;68.10
37782;DHT22;23621;50.878;4.584;2024-03-02T08:50:37;13.70;68.20
37782;DHT22;23621;50.878;4.584;2024-03-02T08:52:38;13.70;68.30
37782;DHT22;23621;50.878;4.584;2024-03-02T08:54:39;13.70;68.20
37782;DHT22;23621;50.878;4.584;2024-03-02T08:56:39;13.80;68.30
37782;DHT22;23621;50.878;4.584;2024-03-02T08:58:40;13.80;68.20
37782;DHT22;23621;50.878;4.584;2024-03-02T09:00:41;13.90;68.30
37782;DHT22;23621;50.878;4.584;2024-03-02T09:02:43;13.90;68.20
37782;DHT22;23621;50.878;4.584;2024-03-02T09:04:43;14.00;68.20
37782;DHT22;23621;50.878;4.584;2024-03-02T09:06:44;14.00;68.10
37782;DHT22;23621;50.878;4.584;2024-03-02T09:08:45;14.00;67.90
37782;DHT22;23621;50.878;4.584;2024-03-02T09:10:45;14.00;67.80
37782;DHT22;23621;50.878;4.584;2024-03-02T09:12:46;14.00;67.80
37782;DHT22;23621;50.878;4.584;2024-03-02T09:14:47;14.10;67.80
37782;DHT22;23621;50.878;4.584;2024-03-02T09:16:48;14.10;67.80
37782;DHT22;23621;50.878;4.584;2024-03-02T09:18:48;14.20;67.80
37782;DHT22;23621;50.878;4.584;2024-03-02T09:20:49;14.20;67.70
37782;DHT22;23621;50.878;4.584;2024-03-02T09:22:50;14.20;67.70
37782;DHT22;23621;50.878;4.584;2024-03-02T09:24:50;14.20;67.90
37782;DHT22;23621;50.878;4.584;2024-03-02T09:26:51;14.30;67.90
37782;DHT22;23621;50.878;4.584;2024-03-02T09:28:52;14.30;67.80
37782;DHT22;23621;50.878;4.584;2024-03-02T09:30:53;14.30;67.70
37782;DHT22;23621;50.878;4.584;2024-03-02T09:32:53;14.30;67.60
37782;DHT22;23621;50.878;4.584;2024-03-02T09:34:54;14.30;67.70
37782;DHT22;23621;50.878;4.584;2024-03-02T09:36:56;14.40;67.90
37782;DHT22;23621;50.878;4.584;2024-03-02T09:38:56;14.40;67.80
37782;DHT22;23621;50.878;4.584;2024-03-02T09:40:57;14.50;67.90
37782;DHT22;23621;50.878;4.584;2024-03-02T09:42:58;14.50;67.80
37782;DHT22;23621;50.878;4.584;2024-03-02T09:44:59;14.60;67.60
37782;DHT22;23621;50.878;4.584;2024-03-02T09:47:00;14.60;67.50
37782;DHT22;23621;50.878;4.584;2024-03-02T09:49:00;14.60;67.50
37782;DHT22;23621;50.878;4.584;2024-03-02T09:51:01;14.70;67.60
37782;DHT22;23621;50.878;4.584;2024-03-02T09:53:04;14.70;67.50
37782;DHT22;23621;50.878;4.584;2024-03-02T09:55:05;14.80;67.60
37782;DHT22;23621;50.878;4.584;2024-03-02T09:57:06;14.90;67.60
37782;DHT22;23621;50.878;4.584;2024-03-02T09:59:07;14.90;67.70
37782;DHT22;23621;50.878;4.584;2024-03-02T10:01:08;15.00;67.90
37782;DHT22;23621;50.878;4.584;2024-03-02T10:03:13;15.00;67.60
37782;DHT22;23621;50.878;4.584;2024-03-02T10:05:24;15.00;67.40
37782;DHT22;23621;50.878;4.584;2024-03-02T10:07:25;15.10;67.00
37782;DHT22;23621;50.878;4.584;2024-03-02T10:09:28;15.00;66.90
37782;DHT22;23621;50.878;4.584;2024-03-02T10:11:34;15.10;67.10
37782;DHT22;23621;50.878;4.584;2024-03-02T10:13:37;15.10;67.20
37782;DHT22;23621;50.878;4.584;2024-03-02T10:15:39;15.20;67.30
37782;DHT22;23621;50.878;4.584;2024-03-02T10:17:42;15.20;67.30
37782;DHT22;23621;50.878;4.584;2024-03-02T10:19:43;15.20;67.10
37782;DHT22;23621;50.878;4.584;2024-03-02T10:21:51;15.20;66.80
37782;DHT22;23621;50.878;4.584;2024-03-02T10:23:52;15.20;66.80
37782;DHT22;23621;50.878;4.584;2024-03-02T10:25:53;15.20;66.90
37782;DHT22;23621;50.878;4.584;2024-03-02T10:27:57;15.30;67.10
37782;DHT22;23621;50.878;4.584;2024-03-02T10:29:58;15.30;67.00
37782;DHT22;23621;50.878;4.584;2024-03-02T10:32:02;15.40;67.20
37782;DHT22;23621;50.878;4.584;2024-03-02T10:34:03;15.40;67.30
37782;DHT22;23621;50.878;4.584;2024-03-02T10:36:04;15.40;67.20
37782;DHT22;23621;50.878;4.584;2024-03-02T10:38:05;15.50;67.30
37782;DHT22;23621;50.878;4.584;2024-03-02T10:40:07;15.50;67.20
37782;DHT22;23621;50.878;4.584;2024-03-02T10:42:09;15.50;67.10
37782;DHT22;23621;50.878;4.584;2024-03-02T10:44:10;15.50;66.90
37782;DHT22;23621;50.878;4.584;2024-03-02T10:46:11;15.50;66.80
37782;DHT22;23621;50.878;4.584;2024-03-02T10:48:13;15.50;66.50
37782;DHT22;23621;50.878;4.584;2024-03-02T10:50:14;15.60;66.40
37782;DHT22;23621;50.878;4.584;2024-03-02T10:52:14;15.60;66.50
37782;DHT22;23621;50.878;4.584;2024-03-02T10:54:15;15.60;66.30
37782;DHT22;23621;50.878;4.584;2024-03-02T10:56:30;15.70;66.10
37782;DHT22;23621;50.878;4.584;2024-03-02T10:58:34;15.70;66.10
37782;DHT22;23621;50.878;4.584;2024-03-02T11:00:36;15.70;66.10
37782;DHT22;23621;50.878;4.584;2024-03-02T11:02:39;15.80;66.20
37782;DHT22;23621;50.878;4.584;2024-03-02T11:04:40;15.90;65.90
37782;DHT22;23621;50.878;4.584;2024-03-02T11:06:49;15.90;65.30
37782;DHT22;23621;50.878;4.584;2024-03-02T11:08:52;16.00;65.20
37782;DHT22;23621;50.878;4.584;2024-03-02T11:11:11;16.00;65.10
37782;DHT22;23621;50.878;4.584;2024-03-02T11:13:16;16.10;65.30
37782;DHT22;23621;50.878;4.584;2024-03-02T11:15:21;16.20;65.60
37782;DHT22;23621;50.878;4.584;2024-03-02T11:17:26;16.30;65.50
37782;DHT22;23621;50.878;4.584;2024-03-02T11:19:27;16.40;65.60
37782;DHT22;23621;50.878;4.584;2024-03-02T11:21:28;16.50;65.40
37782;DHT22;23621;50.878;4.584;2024-03-02T11:23:33;16.60;65.40
37782;DHT22;23621;50.878;4.584;2024-03-02T11:25:34;16.70;65.40
37782;DHT22;23621;50.878;4.584;2024-03-02T11:29:50;16.70;64.80
37782;DHT22;23621;50.878;4.584;2024-03-02T11:31:59;16.70;64.90
37782;DHT22;23621;50.878;4.584;2024-03-02T11:34:17;16.70;64.60
37782;DHT22;23621;50.878;4.584;2024-03-02T11:36:18;16.60;64.20
37782;DHT22;23621;50.878;4.584;2024-03-02T11:38:19;16.60;64.50
37782;DHT22;23621;50.878;4.584;2024-03-02T11:40:24;16.60;64.10
37782;DHT22;23621;50.878;4.584;2024-03-02T11:42:25;16.60;63.90
37782;DHT22;23621;50.878;4.584;2024-03-02T11:44:28;16.60;64.10
37782;DHT22;23621;50.878;4.584;2024-03-02T11:46:28;16.70;64.70
37782;DHT22;23621;50.878;4.584;2024-03-02T11:48:30;16.70;64.70
37782;DHT22;23621;50.878;4.584;2024-03-02T11:50:36;16.70;64.80
37782;DHT22;23621;50.878;4.584;2024-03-02T11:52:39;16.80;64.90
37782;DHT22;23621;50.878;4.584;2024-03-02T11:54:43;16.90;64.70
37782;DHT22;23621;50.878;4.584;2024-03-02T11:56:53;16.90;64.70
37782;DHT22;23621;50.878;4.584;2024-03-02T11:58:54;17.00;64.60
37782;DHT22;23621;50.878;4.584;2024-03-02T12:00:56;17.00;64.70
37782;DHT22;23621;50.878;4.584;2024-03-02T12:03:12;17.00;64.80
37782;DHT22;23621;50.878;4.584;2024-03-02T12:05:13;17.00;64.80
37782;DHT22;23621;50.878;4.584;2024-03-02T12:07:22;17.00;64.50
37782;DHT22;23621;50.878;4.584;2024-03-02T12:09:23;17.00;63.90
37782;DHT22;23621;50.878;4.584;2024-03-02T12:11:24;16.90;63.60
37782;DHT22;23621;50.878;4.584;2024-03-02T12:13:25;16.90;63.50
37782;DHT22;23621;50.878;4.584;2024-03-02T12:15:27;16.90;63.40
37782;DHT22;23621;50.878;4.584;2024-03-02T12:17:29;17.00;63.50
37782;DHT22;23621;50.878;4.584;2024-03-02T12:19:30;17.00;63.90
37782;DHT22;23621;50.878;4.584;2024-03-02T12:21:31;17.10;63.90
37782;DHT22;23621;50.878;4.584;2024-03-02T12:23:32;17.20;63.80
37782;DHT22;23621;50.878;4.584;2024-03-02T12:25:33;17.30;63.80
37782;DHT22;23621;50.878;4.584;2024-03-02T12:27:34;17.30;63.80
37782;DHT22;23621;50.878;4.584;2024-03-02T12:29:36;17.40;63.80
37782;DHT22;23621;50.878;4.584;2024-03-02T12:31:37;17.40;63.50
37782;DHT22;23621;50.878;4.584;2024-03-02T12:33:37;17.50;63.30
37782;DHT22;23621;50.878;4.584;2024-03-02T12:35:38;17.50;63.30
37782;DHT22;23621;50.878;4.584;2024-03-02T12:37:47;17.60;63.40
37782;DHT22;23621;50.878;4.584;2024-03-02T12:39:48;17.60;63.40
37782;DHT22;23621;50.878;4.584;2024-03-02T12:41:51;17.60;63.20
37782;DHT22;23621;50.878;4.584;2024-03-02T12:43:54;17.60;63.00
37782;DHT22;23621;50.878;4.584;2024-03-02T12:45:55;17.60;63.00
37782;DHT22;23621;50.878;4.584;2024-03-02T12:47:56;17.60;63.20
37782;DHT22;23621;50.878;4.584;2024-03-02T12:49:57;17.60;63.30